Time;durP1;ratioP1;P1;durP2;ratioP2;P2;SDS_P1;SDS_P2;PMS_P1;PMS_P2;Temp;Humidity;BMP_temperature;BMP_pressure;BME280_temperature;BME280_humidity;BME280_pressure;Samples;Min_cycle;Max_cycle;Signal;HPM_P1;HPM_P2
2021/08/09 00:02:24;;;;;;;5.50;3.15;;;12.20;99.90;;;;;;6275996;28;20032;-78
2021/08/09 00:05:24;;;;;;;4.07;2.97;;;12.30;99.90;;;;;;6275513;28;20035;-77
2021/08/09 00:08:25;;;;;;;7.05;3.25;;;12.10;99.90;;;;;;6292422;28;20037;-78
2021/08/09 00:11:26;;;;;;;3.40;3.10;;;11.90;99.90;;;;;;6275734;28;20036;-79
2021/08/09 00:14:26;;;;;;;4.60;3.22;;;11.90;99.90;;;;;;6293843;28;20031;-79
2021/08/09 00:17:27;;;;;;;4.13;3.35;;;11.90;99.90;;;;;;6309821;28;20043;-79
2021/08/09 00:20:28;;;;;;;3.35;2.72;;;11.80;99.90;;;;;;6302817;28;20032;-79
2021/08/09 00:23:28;;;;;;;7.70;3.55;;;12.00;99.90;;;;;;6275452;28;20025;-79
2021/08/09 00:26:30;;;;;;;5.18;3.22;;;12.00;99.90;;;;;;6292084;28;20025;-79
2021/08/09 00:29:30;;;;;;;4.90;3.35;;;12.10;99.90;;;;;;6293167;28;20458;-79
2021/08/09 00:32:31;;;;;;;4.90;3.15;;;12.20;99.90;;;;;;6293099;28;20078;-79
2021/08/09 00:35:31;;;;;;;3.22;2.90;;;11.80;99.90;;;;;;6293427;28;20478;-78
2021/08/09 00:38:32;;;;;;;5.68;3.00;;;11.90;99.90;;;;;;6291882;28;20569;-78
2021/08/09 00:41:32;;;;;;;4.15;2.90;;;12.00;99.90;;;;;;6292331;28;20024;-79
2021/08/09 00:44:34;;;;;;;5.10;3.10;;;11.90;99.90;;;;;;6293962;28;20473;-79
2021/08/09 00:47:34;;;;;;;3.45;2.78;;;12.40;99.90;;;;;;6291807;28;20054;-78
2021/08/09 00:50:35;;;;;;;4.45;3.05;;;12.10;99.90;;;;;;6292810;28;20032;-78
2021/08/09 00:53:35;;;;;;;4.13;3.25;;;12.00;99.90;;;;;;6315623;28;20534;-79
2021/08/09 00:56:36;;;;;;;5.05;2.70;;;12.00;99.90;;;;;;6315637;28;20028;-79
2021/08/09 00:59:37;;;;;;;4.28;3.20;;;11.70;99.90;;;;;;6315541;28;20070;-79
2021/08/09 01:02:37;;;;;;;5.22;3.20;;;11.90;99.90;;;;;;6315672;28;20429;-79
2021/08/09 01:05:38;;;;;;;3.50;2.90;;;12.30;99.90;;;;;;6316745;28;20028;-78
2021/08/09 01:09:03;;;;;;;4.18;2.83;;;12.00;99.90;;;;;;6316109;28;20126;-78
2021/08/09 01:12:27;;;;;;;5.35;3.05;;;11.80;99.90;;;;;;6317206;28;20044;-78
2021/08/09 01:15:32;;;;;;;4.10;2.90;;;11.50;99.90;;;;;;6295568;28;20021;-78
2021/08/09 01:18:34;;;;;;;3.33;2.90;;;11.80;99.90;;;;;;6291704;28;20081;-79
2021/08/09 01:21:35;;;;;;;9.27;3.20;;;11.80;99.90;;;;;;6291675;28;20060;-78
2021/08/09 01:25:00;;;;;;;7.32;2.95;;;11.80;99.90;;;;;;6274899;28;20031;-79
2021/08/09 01:28:01;;;;;;;4.50;3.15;;;11.70;99.90;;;;;;6287843;28;20040;-78
2021/08/09 01:31:02;;;;;;;5.65;2.88;;;;;;;;;;6290910;28;20055;-79
2021/08/09 01:34:03;;;;;;;4.82;2.75;;;11.90;99.90;;;;;;6291643;28;20013;-79
2021/08/09 01:37:03;;;;;;;4.15;2.90;;;11.90;99.90;;;;;;6294633;28;20106;-80
2021/08/09 01:40:06;;;;;;;4.40;2.92;;;11.90;99.90;;;;;;6295859;28;20035;-79
2021/08/09 01:43:07;;;;;;;4.07;2.90;;;11.60;99.90;;;;;;6295435;28;20111;-78
2021/08/09 01:46:08;;;;;;;11.02;3.13;;;;;;;;;;6295914;28;20050;-78
2021/08/09 01:49:08;;;;;;;3.60;2.92;;;11.70;99.90;;;;;;6296571;28;20032;-78
2021/08/09 01:52:09;;;;;;;4.50;2.97;;;12.20;99.90;;;;;;6278917;28;20451;-78
2021/08/09 01:55:11;;;;;;;11.32;3.15;;;11.80;99.90;;;;;;6278595;28;20378;-78
2021/08/09 01:58:12;;;;;;;3.85;2.80;;;11.70;99.90;;;;;;6318858;28;20024;-78
2021/08/09 02:01:12;;;;;;;5.82;2.83;;;11.80;99.90;;;;;;6319442;28;20374;-77
2021/08/09 02:04:13;;;;;;;5.40;2.88;;;12.00;99.90;;;;;;6311323;28;20374;-78
2021/08/09 02:07:13;;;;;;;3.78;3.40;;;11.80;99.90;;;;;;6295464;28;20661;-78
2021/08/09 02:10:20;;;;;;;3.90;2.90;;;11.70;99.90;;;;;;6296045;28;20052;-78
2021/08/09 02:13:25;;;;;;;5.82;2.80;;;11.80;99.90;;;;;;6295427;28;20028;-78
2021/08/09 02:16:38;;;;;;;2.63;2.42;;;11.60;99.90;;;;;;6296487;28;20024;-77
2021/08/09 02:20:04;;;;;;;4.78;2.53;;;11.50;99.90;;;;;;6295158;28;20026;-78
2021/08/09 02:23:10;;;;;;;5.20;2.70;;;11.80;99.90;;;;;;6296879;28;20033;-78
2021/08/09 02:26:11;;;;;;;4.85;2.67;;;11.20;99.90;;;;;;6295225;28;20062;-78
2021/08/09 02:29:15;;;;;;;6.20;2.80;;;11.40;99.90;;;;;;6294357;28;20147;-79
2021/08/09 02:32:17;;;;;;;8.68;2.63;;;11.70;99.90;;;;;;6315880;28;20051;-78
2021/08/09 02:35:18;;;;;;;4.75;2.95;;;;;;;;;;6301321;28;20040;-77
2021/08/09 02:38:19;;;;;;;4.47;2.90;;;;;;;;;;6297125;28;20048;-77
2021/08/09 02:41:20;;;;;;;4.55;2.60;;;;;;;;;;6294271;28;20083;-78
2021/08/09 02:44:21;;;;;;;3.75;2.60;;;11.70;99.90;;;;;;6294316;28;20046;-77
2021/08/09 02:47:21;;;;;;;4.70;2.80;;;11.60;99.90;;;;;;6304563;28;20024;-78
2021/08/09 02:50:22;;;;;;;4.00;2.88;;;11.80;99.90;;;;;;6318084;28;20119;-77
2021/08/09 02:53:22;;;;;;;5.13;2.83;;;11.80;99.90;;;;;;6318256;28;20028;-77
2021/08/09 02:56:24;;;;;;;3.78;2.70;;;;;;;;;;6317866;28;20028;-78
2021/08/09 02:59:24;;;;;;;4.75;2.78;;;11.60;99.90;;;;;;6319370;28;20418;-78
2021/08/09 03:02:25;;;;;;;3.83;3.00;;;11.70;99.90;;;;;;6317900;28;20020;-79
2021/08/09 03:05:26;;;;;;;5.28;2.83;;;11.60;99.90;;;;;;6317836;28;20408;-78
2021/08/09 03:08:28;;;;;;;4.97;3.22;;;11.80;99.90;;;;;;6317713;28;20762;-78
2021/08/09 03:11:28;;;;;;;7.78;3.30;;;11.60;99.90;;;;;;6293572;28;20020;-78
2021/08/09 03:14:31;;;;;;;3.22;2.92;;;11.60;99.90;;;;;;6294638;28;20039;-78
2021/08/09 03:17:31;;;;;;;7.20;3.08;;;11.60;99.90;;;;;;6293647;28;20054;-78
2021/08/09 03:20:32;;;;;;;4.30;2.80;;;11.70;99.90;;;;;;6293573;28;20028;-78
2021/08/09 03:23:33;;;;;;;5.70;3.03;;;11.60;99.90;;;;;;6293507;28;20111;-78
2021/08/09 03:26:33;;;;;;;3.00;2.63;;;11.70;99.90;;;;;;6293376;28;20032;-80
2021/08/09 03:29:34;;;;;;;4.25;2.75;;;11.80;99.90;;;;;;6292967;28;20044;-80
2021/08/09 03:32:35;;;;;;;3.85;2.78;;;11.80;99.90;;;;;;6293373;28;20032;-78
2021/08/09 03:35:35;;;;;;;2.92;2.35;;;11.70;99.90;;;;;;6293292;28;20043;-79
2021/08/09 03:38:36;;;;;;;5.53;3.20;;;11.80;99.90;;;;;;6293071;28;20028;-80
2021/08/09 03:41:36;;;;;;;3.53;2.50;;;12.00;99.90;;;;;;6293977;28;20028;-80
2021/08/09 03:44:37;;;;;;;4.90;2.50;;;11.80;99.90;;;;;;6307733;28;20545;-79
2021/08/09 03:47:38;;;;;;;3.50;2.92;;;12.40;99.90;;;;;;6316676;28;20028;-79
2021/08/09 03:50:38;;;;;;;3.22;2.60;;;11.90;99.90;;;;;;6318016;28;20028;-78
2021/08/09 03:53:39;;;;;;;3.97;2.40;;;11.80;99.90;;;;;;6318033;28;20020;-78
2021/08/09 03:56:39;;;;;;;2.38;2.13;;;11.90;99.90;;;;;;6299744;28;20515;-79
2021/08/09 03:59:40;;;;;;;3.60;2.70;;;12.10;99.90;;;;;;6316362;28;20024;-79
2021/08/09 04:02:41;;;;;;;6.13;2.60;;;11.80;99.90;;;;;;6316332;28;20085;-78
2021/08/09 04:05:42;;;;;;;4.68;2.63;;;11.80;99.90;;;;;;6316758;28;20022;-79
2021/08/09 04:08:42;;;;;;;5.35;2.67;;;11.90;99.90;;;;;;6316201;28;20024;-79
2021/08/09 04:11:43;;;;;;;7.85;2.75;;;12.20;99.90;;;;;;6316599;28;20107;-79
2021/08/09 04:14:43;;;;;;;4.78;2.85;;;11.90;99.90;;;;;;6303503;28;20050;-80
2021/08/09 04:17:44;;;;;;;5.20;2.80;;;12.20;99.90;;;;;;6275204;28;20390;-80
2021/08/09 04:20:45;;;;;;;2.60;2.30;;;11.70;99.90;;;;;;6297374;28;20097;-79
2021/08/09 04:23:46;;;;;;;3.92;2.63;;;11.70;99.90;;;;;;6317707;28;20032;-79
2021/08/09 04:26:47;;;;;;;4.07;2.60;;;11.60;99.90;;;;;;6316490;28;20426;-79
2021/08/09 04:29:47;;;;;;;5.20;2.97;;;11.50;99.90;;;;;;6298603;28;20039;-80
2021/08/09 04:32:48;;;;;;;3.17;2.60;;;11.50;99.90;;;;;;6315971;28;20024;-80
2021/08/09 04:36:04;;;;;;;2.78;2.50;;;11.70;99.90;;;;;;6296583;28;20040;-80
2021/08/09 04:39:05;;;;;;;3.42;2.90;;;11.60;99.90;;;;;;6303671;28;20029;-81
2021/08/09 04:42:05;;;;;;;4.68;2.67;;;11.80;99.90;;;;;;6276474;28;20067;-78
2021/08/09 04:45:06;;;;;;;3.53;2.50;;;11.90;99.90;;;;;;6278719;28;20035;-78
2021/08/09 04:48:07;;;;;;;2.92;2.63;;;12.10;99.90;;;;;;6275073;28;20032;-78
2021/08/09 04:51:07;;;;;;;3.22;2.70;;;12.50;99.90;;;;;;6293443;28;20469;-78
2021/08/09 04:54:08;;;;;;;3.20;2.63;;;12.50;99.90;;;;;;6297558;28;20037;-80
2021/08/09 04:57:09;;;;;;;6.68;3.65;;;12.90;99.90;;;;;;6274952;28;20451;-80
2021/08/09 05:00:10;;;;;;;4.13;2.83;;;13.40;99.90;;;;;;6300919;28;20054;-80
2021/08/09 05:03:11;;;;;;;7.45;5.18;;;13.40;99.90;;;;;;6283565;28;20039;-80
2021/08/09 05:06:11;;;;;;;7.72;4.53;;;13.80;99.90;;;;;;6276676;28;20024;-82
2021/08/09 05:09:15;;;;;;;9.07;4.25;;;13.50;99.90;;;;;;6295250;28;20071;-91
2021/08/09 05:12:16;;;;;;;9.38;4.07;;;;;;;;;;6300643;28;20028;-83
2021/08/09 05:15:18;;;;;;;7.28;4.28;;;;;;;;;;6301125;28;20527;-82
2021/08/09 05:18:19;;;;;;;7.18;3.13;;;;;;;;;;6297128;28;20031;-82
2021/08/09 05:21:20;;;;;;;2.63;2.42;;;;;;;;;;6281349;28;20029;-85
2021/08/09 05:24:21;;;;;;;4.72;2.60;;;;;;;;;;6279283;28;20064;-81
2021/08/09 05:27:22;;;;;;;4.60;2.70;;;13.10;99.90;;;;;;6315354;28;20674;-83
2021/08/09 05:30:23;;;;;;;14.05;2.92;;;13.10;99.90;;;;;;6317502;28;20044;-83
2021/08/09 05:33:24;;;;;;;4.30;2.47;;;;;;;;;;6295968;28;20075;-82
2021/08/09 05:36:25;;;;;;;3.03;2.33;;;13.80;99.90;;;;;;6303560;28;20048;-83
2021/08/09 05:39:25;;;;;;;2.53;2.22;;;14.20;99.90;;;;;;6314727;28;20115;-86
2021/08/09 05:42:26;;;;;;;5.88;2.42;;;;;;;;;;6319660;28;20043;-87
2021/08/09 05:45:27;;;;;;;5.15;2.72;;;15.50;99.90;;;;;;6295158;28;20013;-82
2021/08/09 05:48:28;;;;;;;2.60;2.40;;;15.90;99.90;;;;;;6311499;28;20035;-83
2021/08/09 05:51:28;;;;;;;2.88;2.50;;;16.50;99.90;;;;;;6319186;28;20454;-84
2021/08/09 05:54:29;;;;;;;4.20;2.83;;;17.00;99.90;;;;;;6315246;28;20089;-81
2021/08/09 05:57:29;;;;;;;6.03;2.50;;;17.10;99.90;;;;;;6300855;28;20028;-83
2021/08/09 06:00:30;;;;;;;4.68;2.50;;;17.10;99.90;;;;;;6291749;28;20032;-85
2021/08/09 06:03:31;;;;;;;2.60;1.88;;;;;;;;;;6299753;28;20033;-82
2021/08/09 06:06:31;;;;;;;3.50;2.80;;;16.90;99.90;;;;;;6293200;28;20024;-82
2021/08/09 06:09:33;;;;;;;3.58;2.40;;;17.00;99.90;;;;;;6276912;28;20024;-82
2021/08/09 06:12:36;;;;;;;5.73;2.30;;;17.10;99.90;;;;;;6285758;28;20032;-82
2021/08/09 06:15:36;;;;;;;5.15;2.60;;;17.40;99.90;;;;;;6280509;28;20113;-82
2021/08/09 06:18:37;;;;;;;2.45;2.22;;;17.70;99.90;;;;;;6309707;28;20249;-86
2021/08/09 06:21:38;;;;;;;2.40;2.20;;;18.00;99.90;;;;;;6304464;28;20374;-81
2021/08/09 06:24:39;;;;;;;2.60;2.20;;;;;;;;;;6302473;28;20035;-82
2021/08/09 06:27:41;;;;;;;5.30;2.40;;;18.40;99.90;;;;;;6296870;28;20481;-86
2021/08/09 06:30:41;;;;;;;5.72;2.72;;;18.30;99.90;;;;;;6301613;28;20030;-83
2021/08/09 06:33:42;;;;;;;4.43;2.55;;;18.40;99.90;;;;;;6303727;28;20040;-82
2021/08/09 06:36:43;;;;;;;3.50;2.90;;;18.70;99.90;;;;;;6294310;28;20059;-83
2021/08/09 06:39:43;;;;;;;5.55;3.78;;;19.10;99.90;;;;;;6304695;28;20097;-82
2021/08/09 06:42:44;;;;;;;3.33;2.65;;;19.50;99.90;;;;;;6306442;28;20033;-85
2021/08/09 06:45:45;;;;;;;2.58;2.30;;;19.60;99.50;;;;;;6294559;28;20024;-84
2021/08/09 06:48:45;;;;;;;4.25;2.35;;;20.20;99.20;;;;;;6294283;28;20028;-82
2021/08/09 06:51:46;;;;;;;3.90;2.50;;;20.70;98.80;;;;;;6294322;28;20518;-83
2021/08/09 06:54:46;;;;;;;2.88;2.47;;;21.40;97.50;;;;;;6300776;28;20535;-83
2021/08/09 06:57:47;;;;;;;2.88;2.38;;;22.10;96.50;;;;;;6296893;28;20024;-84
2021/08/09 07:00:47;;;;;;;3.05;2.15;;;22.70;94.20;;;;;;6318232;28;20127;-85
2021/08/09 07:03:49;;;;;;;3.28;2.00;;;;;;;;;;6317746;28;20024;-86
2021/08/09 07:06:50;;;;;;;2.80;2.20;;;23.60;99.90;;;;;;6284899;28;20032;-84
2021/08/09 07:09:51;;;;;;;3.30;2.30;;;23.60;92.50;;;;;;6277652;28;20512;-83
2021/08/09 07:12:51;;;;;;;4.25;2.35;;;24.60;96.90;;;;;;6284759;28;20028;-84
2021/08/09 07:15:52;;;;;;;9.25;2.95;;;;;;;;;;6294722;28;20058;-84
2021/08/09 07:18:53;;;;;;;3.72;2.30;;;25.30;95.10;;;;;;6295290;28;20020;-84
2021/08/09 07:21:53;;;;;;;3.47;2.47;;;25.40;98.50;;;;;;6311861;28;20048;-84
2021/08/09 07:24:54;;;;;;;3.00;2.25;;;;;;;;;;6298840;28;20028;-84
2021/08/09 07:27:55;;;;;;;3.60;2.50;;;26.50;94.90;;;;;;6303551;28;20057;-84
2021/08/09 07:30:56;;;;;;;2.87;2.37;;;;;;;;;;6317153;28;20505;-87
2021/08/09 07:33:57;;;;;;;3.03;2.60;;;;;;;;;;6311180;28;20465;-83
2021/08/09 07:36:58;;;;;;;3.27;2.40;;;;;;;;;;6294985;28;20088;-87
2021/08/09 07:39:59;;;;;;;3.87;2.37;;;;;;;;;;6295899;28;20028;-83
2021/08/09 07:43:00;;;;;;;3.27;2.30;;;;;;;;;;6287079;28;20107;-85
2021/08/09 07:46:01;;;;;;;4.37;2.40;;;;;;;;;;6283663;28;20319;-86
2021/08/09 07:49:02;;;;;;;5.03;2.50;;;;;;;;;;6318448;28;20077;-86
2021/08/09 07:52:03;;;;;;;4.80;2.30;;;28.70;96.40;;;;;;6306952;28;20275;-90
2021/08/09 07:55:04;;;;;;;3.20;2.20;;;28.70;90.50;;;;;;6302529;28;20024;-84
2021/08/09 07:58:04;;;;;;;4.07;2.33;;;28.70;77.00;;;;;;6310799;28;20302;-87
2021/08/09 08:01:11;;;;;;;2.97;2.47;;;28.20;71.70;;;;;;6296816;28;20035;-89
2021/08/09 08:04:12;;;;;;;2.50;2.17;;;27.70;71.90;;;;;;6295822;28;20040;-84
2021/08/09 08:07:12;;;;;;;2.60;2.40;;;27.20;73.90;;;;;;6304070;28;20024;-89
2021/08/09 08:10:13;;;;;;;3.83;2.70;;;26.90;74.10;;;;;;6301255;28;20048;-83
2021/08/09 08:13:14;;;;;;;3.63;2.20;;;26.90;74.80;;;;;;6306427;28;20108;-84
2021/08/09 08:16:14;;;;;;;2.70;2.20;;;26.90;72.00;;;;;;6316987;28;20032;-84
2021/08/09 08:19:15;;;;;;;3.90;2.40;;;27.10;72.60;;;;;;6296320;28;20055;-85
2021/08/09 08:22:15;;;;;;;3.00;2.40;;;27.50;73.50;;;;;;6311276;28;20031;-84
2021/08/09 08:25:16;;;;;;;5.00;2.47;;;27.70;70.00;;;;;;6302617;28;20033;-84
2021/08/09 08:28:17;;;;;;;4.17;2.60;;;27.90;70.00;;;;;;6310166;28;20044;-84
2021/08/09 08:31:17;;;;;;;4.93;2.30;;;;;;;;;;6316120;28;20028;-85
2021/08/09 08:34:18;;;;;;;4.00;2.60;;;28.00;65.60;;;;;;6290961;28;20036;-84
2021/08/09 08:37:19;;;;;;;3.00;2.07;;;;;;;;;;6302387;28;20076;-84
2021/08/09 08:40:20;;;;;;;2.22;2.03;;;28.00;67.90;;;;;;6316557;28;20032;-84
2021/08/09 08:43:22;;;;;;;3.90;2.23;;;27.90;67.90;;;;;;6301289;28;20656;-84
2021/08/09 08:46:22;;;;;;;;;;;27.90;70.20;;;;;;6291528;28;20019;-87
2021/08/09 08:49:23;;;;;;;4.80;2.72;;;27.70;70.60;;;;;;6290316;28;20243;-84
2021/08/09 08:52:24;;;;;;;4.10;2.30;;;27.50;69.70;;;;;;6298024;28;20020;-87
2021/08/09 08:55:24;;;;;;;3.03;2.47;;;27.70;71.60;;;;;;6297722;28;20077;-84
2021/08/09 08:58:25;;;;;;;5.93;2.50;;;28.00;69.80;;;;;;6303302;28;20060;-86
2021/08/09 09:01:52;;;;;;;5.03;2.83;;;28.10;68.70;;;;;;6302025;28;20107;-88
2021/08/09 09:04:53;;;;;;;4.28;2.72;;;28.40;67.60;;;;;;6300505;28;20074;-84
2021/08/09 09:07:58;;;;;;;4.77;2.47;;;28.60;67.40;;;;;;6280872;28;20033;-84
2021/08/09 09:10:59;;;;;;;3.70;2.35;;;28.40;66.10;;;;;;6291594;28;20042;-84
2021/08/09 09:14:04;;;;;;;3.80;2.50;;;28.40;66.70;;;;;;6316951;28;20430;-84
2021/08/09 09:17:05;;;;;;;3.38;2.67;;;28.90;65.20;;;;;;6318073;28;20053;-87
2021/08/09 09:20:25;;;;;;;2.70;2.10;;;29.40;65.90;;;;;;6309375;28;20020;-83
2021/08/09 09:23:25;;;;;;;12.15;3.35;;;28.80;63.50;;;;;;6320790;28;20054;-83
2021/08/09 09:26:26;;;;;;;8.67;2.93;;;27.90;66.90;;;;;;6309200;28;20044;-84
2021/08/09 09:29:27;;;;;;;4.50;2.87;;;27.00;69.00;;;;;;6280880;28;20425;-87
2021/08/09 09:32:27;;;;;;;5.03;2.80;;;27.40;70.80;;;;;;6296814;28;20454;-86
2021/08/09 09:35:28;;;;;;;3.70;3.03;;;27.50;70.50;;;;;;6273927;28;20036;-84
2021/08/09 09:38:29;;;;;;;3.03;2.37;;;26.90;70.50;;;;;;6299710;28;20028;-84
2021/08/09 09:41:29;;;;;;;3.70;2.30;;;27.40;72.80;;;;;;6314791;28;20028;-84
2021/08/09 09:44:30;;;;;;;3.77;2.70;;;27.40;69.50;;;;;;6309686;28;20498;-85
2021/08/09 09:47:31;;;;;;;6.57;3.20;;;27.80;68.70;;;;;;6319742;28;20365;-84
2021/08/09 09:50:36;;;;;;;3.10;2.37;;;28.20;78.30;;;;;;6309457;28;20080;-87
2021/08/09 09:53:37;;;;;;;4.40;2.65;;;;;;;;;;6313747;28;20047;-85
2021/08/09 09:56:40;;;;;;;3.17;2.58;;;28.50;77.50;;;;;;6307336;28;20035;-89
2021/08/09 09:59:41;;;;;;;4.93;2.50;;;;;;;;;;6309994;28;20028;-84
2021/08/09 10:02:43;;;;;;;4.47;2.50;;;28.00;76.80;;;;;;6291059;28;20035;-84
2021/08/09 10:05:46;;;;;;;3.35;2.60;;;29.10;79.20;;;;;;6302866;28;20079;-86
2021/08/09 10:08:47;;;;;;;4.45;2.58;;;28.50;68.50;;;;;;6305498;28;20464;-84
2021/08/09 10:11:47;;;;;;;6.40;2.73;;;28.20;68.30;;;;;;6282613;28;20031;-84
2021/08/09 10:14:48;;;;;;;4.03;2.70;;;28.30;68.70;;;;;;6281598;28;20033;-87
2021/08/09 10:17:49;;;;;;;4.10;2.50;;;28.60;67.80;;;;;;6279790;28;20020;-84
2021/08/09 10:20:53;;;;;;;5.07;3.08;;;28.50;68.10;;;;;;6278885;28;20115;-86
2021/08/09 10:23:54;;;;;;;4.03;2.40;;;27.90;68.60;;;;;;6295725;28;20037;-84
2021/08/09 10:26:55;;;;;;;3.93;3.00;;;27.00;85.90;;;;;;6293843;28;20439;-83
2021/08/09 10:29:58;;;;;;;3.37;2.53;;;27.00;71.50;;;;;;6312892;28;20047;-84
2021/08/09 10:33:00;;;;;;;4.10;2.80;;;27.00;72.00;;;;;;6311060;28;20035;-84
2021/08/09 10:36:02;;;;;;;7.38;3.60;;;;;;;;;;6310804;28;20052;-84
2021/08/09 10:39:03;;;;;;;5.88;3.08;;;26.00;73.90;;;;;;6313188;28;20059;-87
2021/08/09 10:42:03;;;;;;;7.83;3.83;;;25.50;77.60;;;;;;6303972;28;20504;-83
2021/08/09 10:45:17;;;;;;;4.93;3.27;;;25.50;79.80;;;;;;6281071;28;20024;-84
2021/08/09 10:48:47;;;;;;;8.80;3.70;;;26.10;77.30;;;;;;6318178;28;20122;-86
2021/08/09 10:51:50;;;;;;;7.63;3.10;;;26.60;74.00;;;;;;6284396;28;20093;-85
2021/08/09 10:54:51;;;;;;;6.78;3.22;;;26.40;74.70;;;;;;6299908;28;20035;-84
2021/08/09 10:57:51;;;;;;;6.50;2.77;;;25.90;74.00;;;;;;6307103;28;20028;-81
2021/08/09 11:00:52;;;;;;;3.77;2.60;;;25.80;75.10;;;;;;6294300;28;20056;-83
2021/08/09 11:04:02;;;;;;;2.93;2.40;;;26.10;94.30;;;;;;6308559;28;20397;-85
2021/08/09 11:07:15;;;;;;;3.40;2.67;;;26.40;82.40;;;;;;6298796;28;20024;-88
2021/08/09 11:10:36;;;;;;;4.00;2.47;;;26.50;80.70;;;;;;6284606;28;20032;-84
2021/08/09 11:13:37;;;;;;;3.87;2.10;;;;;;;;;;6290194;28;20497;-87
2021/08/09 11:16:38;;;;;;;2.67;2.33;;;26.70;72.70;;;;;;6302748;28;20028;-86
2021/08/09 11:19:38;;;;;;;3.80;2.40;;;27.10;71.10;;;;;;6307221;28;20435;-85
2021/08/09 11:22:40;;;;;;;4.40;2.53;;;;;;;;;;6279039;28;20040;-87
2021/08/09 11:25:48;;;;;;;7.10;2.95;;;27.80;66.30;;;;;;6285762;28;20027;-85
2021/08/09 11:28:58;;;;;;;4.68;2.28;;;27.20;67.30;;;;;;6291733;28;20040;-85
2021/08/09 11:31:59;;;;;;;4.43;2.50;;;27.00;68.00;;;;;;6306600;28;20046;-87
2021/08/09 11:35:01;;;;;;;3.97;2.33;;;27.10;70.50;;;;;;6306229;28;20056;-84
2021/08/09 11:38:02;;;;;;;;;;;27.60;71.30;;;;;;6298637;28;20040;-86
2021/08/09 11:41:05;;;;;;;5.72;3.15;;;27.90;68.70;;;;;;6285768;28;19915;-85
2021/08/09 11:44:10;;;;;;;5.47;2.40;;;28.10;66.10;;;;;;6286260;28;20032;-88
2021/08/09 11:47:11;;;;;;;2.97;2.20;;;28.30;65.60;;;;;;6285049;28;20035;-85
2021/08/09 11:50:11;;;;;;;3.53;2.30;;;28.40;64.60;;;;;;6309794;28;20355;-86
2021/08/09 11:53:12;;;;;;;2.93;2.23;;;28.30;61.30;;;;;;6288767;28;20040;-85
2021/08/09 11:56:20;;;;;;;3.60;2.20;;;28.00;61.40;;;;;;6294359;28;20519;-85
2021/08/09 11:59:21;;;;;;;3.42;2.25;;;28.00;63.40;;;;;;6292800;28;20363;-87
2021/08/09 12:02:21;;;;;;;3.43;2.83;;;27.60;64.10;;;;;;6287223;28;20029;-85
2021/08/09 12:05:26;;;;;;;3.17;2.40;;;27.40;62.50;;;;;;6288803;28;20054;-86
2021/08/09 12:08:26;;;;;;;3.33;2.40;;;27.50;63.40;;;;;;6286476;28;20549;-86
2021/08/09 12:11:31;;;;;;;3.50;2.53;;;27.70;63.50;;;;;;6303160;28;20073;-84
2021/08/09 12:14:32;;;;;;;5.07;2.70;;;27.60;64.50;;;;;;6301766;28;20037;-84
2021/08/09 12:17:33;;;;;;;3.40;2.40;;;27.90;65.00;;;;;;6299820;28;20035;-85
2021/08/09 12:20:34;;;;;;;3.70;2.23;;;28.10;60.20;;;;;;6303904;28;20036;-86
2021/08/09 12:23:34;;;;;;;2.80;2.60;;;27.80;61.50;;;;;;6302323;28;20036;-87
2021/08/09 12:26:35;;;;;;;3.10;2.77;;;27.40;65.70;;;;;;6287101;28;20541;-85
2021/08/09 12:29:35;;;;;;;2.37;2.17;;;27.30;63.90;;;;;;6288020;28;20036;-88
2021/08/09 12:32:38;;;;;;;;;;;27.20;64.10;;;;;;6310881;28;20048;-86
2021/08/09 12:35:40;;;;;;;3.05;2.63;;;27.00;61.40;;;;;;6307143;28;19908;-87
2021/08/09 12:38:40;;;;;;;3.95;2.30;;;26.80;90.00;;;;;;6306270;28;20048;-88
2021/08/09 12:41:41;;;;;;;3.80;2.67;;;;;;;;;;6312084;28;20036;-85
2021/08/09 12:44:43;;;;;;;3.75;2.47;;;;;;;;;;6287324;28;20028;-86
2021/08/09 12:47:44;;;;;;;3.90;2.50;;;;;;;;;;6292076;28;20052;-84
2021/08/09 12:50:45;;;;;;;3.33;2.47;;;;;;;;;;6284650;28;20074;-85
2021/08/09 12:53:46;;;;;;;3.67;2.50;;;26.10;68.90;;;;;;6293369;28;20250;-85
2021/08/09 12:56:46;;;;;;;6.10;2.63;;;25.80;75.40;;;;;;6300811;28;20091;-85
2021/08/09 12:59:47;;;;;;;4.73;2.40;;;25.60;76.50;;;;;;6294587;28;20040;-86
2021/08/09 13:02:48;;;;;;;2.77;2.50;;;25.20;75.20;;;;;;6275746;28;20040;-85
2021/08/09 13:05:48;;;;;;;3.30;2.50;;;25.00;66.80;;;;;;6285807;28;20082;-85
2021/08/09 13:08:49;;;;;;;3.07;2.70;;;25.10;66.80;;;;;;6309548;28;20035;-87
2021/08/09 13:20:16;;;;;;;5.85;3.17;;;28.10;69.90;;;;;;6304680;28;20451;-90
2021/08/09 13:23:35;;;;;;;4.55;2.60;;;24.90;66.40;;;;;;6306186;28;20033;-87
2021/08/09 13:26:36;;;;;;;7.10;3.65;;;25.30;70.30;;;;;;6299834;28;20474;-87
2021/08/09 13:29:37;;;;;;;3.73;2.50;;;;;;;;;;6307768;28;20040;-83
2021/08/09 13:32:41;;;;;;;6.23;2.77;;;25.00;66.40;;;;;;6298383;28;20717;-86
2021/08/09 13:35:42;;;;;;;4.82;2.55;;;24.90;69.50;;;;;;6296350;28;20016;-83
2021/08/09 13:38:43;;;;;;;3.80;2.63;;;;;;;;;;6291796;28;20070;-89
2021/08/09 13:41:43;;;;;;;12.50;4.03;;;25.10;66.80;;;;;;6296023;28;20028;-86
2021/08/09 13:44:44;;;;;;;9.03;2.93;;;25.10;69.40;;;;;;6308400;28;20024;-86
2021/08/09 13:47:45;;;;;;;11.17;3.10;;;25.30;68.80;;;;;;6291866;28;20731;-86
2021/08/09 13:50:46;;;;;;;3.60;2.80;;;25.00;69.20;;;;;;6310217;28;20366;-84
2021/08/09 13:53:47;;;;;;;3.08;2.17;;;25.00;70.00;;;;;;6312135;28;20026;-84
2021/08/09 13:56:47;;;;;;;2.93;2.23;;;24.90;71.40;;;;;;6298935;28;20228;-86
2021/08/09 13:59:48;;;;;;;9.93;3.13;;;24.90;69.70;;;;;;6319635;28;20122;-82
2021/08/09 14:02:48;;;;;;;17.27;3.17;;;24.70;69.40;;;;;;6316669;28;20024;-83
2021/08/09 14:05:49;;;;;;;8.13;2.60;;;24.70;69.70;;;;;;6316295;28;20024;-84
2021/08/09 14:08:49;;;;;;;5.90;2.67;;;24.70;71.10;;;;;;6281928;28;20042;-83
2021/08/09 14:11:50;;;;;;;10.53;3.33;;;25.00;71.40;;;;;;6276168;28;20027;-83
2021/08/09 14:14:51;;;;;;;6.27;3.00;;;24.70;71.30;;;;;;6308419;28;20035;-83
2021/08/09 14:17:51;;;;;;;3.83;2.60;;;24.70;72.80;;;;;;6295396;28;20024;-84
2021/08/09 14:20:52;;;;;;;7.03;2.90;;;24.70;72.90;;;;;;6295421;28;20086;-83
2021/08/09 14:23:52;;;;;;;3.63;2.50;;;24.60;72.80;;;;;;6273585;28;20032;-83
2021/08/09 14:26:53;;;;;;;8.13;3.13;;;24.60;72.30;;;;;;6301134;28;20032;-84
2021/08/09 14:29:54;;;;;;;4.20;2.97;;;24.40;73.70;;;;;;6309005;28;20470;-84
2021/08/09 14:32:54;;;;;;;5.17;2.47;;;24.40;73.40;;;;;;6318632;28;20024;-84
2021/08/09 14:35:55;;;;;;;6.23;2.80;;;24.60;74.00;;;;;;6318222;28;20168;-84
2021/08/09 14:38:56;;;;;;;2.50;2.30;;;25.00;73.20;;;;;;6319043;28;20028;-84
2021/08/09 14:41:57;;;;;;;5.80;2.67;;;25.30;73.50;;;;;;6318312;28;20058;-84
2021/08/09 14:44:58;;;;;;;2.47;2.27;;;25.50;74.10;;;;;;6318900;28;20024;-85
2021/08/09 14:47:59;;;;;;;7.07;2.75;;;25.70;70.60;;;;;;6261386;28;20028;-84
2021/08/09 14:51:00;;;;;;;10.63;3.20;;;25.70;72.60;;;;;;6294511;28;20791;-85
2021/08/09 14:54:00;;;;;;;5.17;3.13;;;25.70;72.20;;;;;;6294567;28;20516;-82
2021/08/09 14:57:01;;;;;;;10.43;2.90;;;25.50;95.20;;;;;;6280710;28;20028;-82
2021/08/09 15:00:02;;;;;;;9.20;3.80;;;25.50;92.40;;;;;;6312288;28;20086;-87
2021/08/09 15:03:06;;;;;;;4.13;2.75;;;25.30;94.70;;;;;;6290469;28;20101;-84
2021/08/09 15:06:12;;;;;;;9.95;3.13;;;;;;;;;;6280201;28;20020;-89
2021/08/09 15:09:13;;;;;;;11.88;2.80;;;;;;;;;;6287223;28;20033;-86
2021/08/09 15:12:14;;;;;;;5.03;2.70;;;;;;;;;;6279106;28;20029;-87
2021/08/09 15:15:15;;;;;;;7.83;3.30;;;25.50;82.00;;;;;;6284015;28;20254;-83
2021/08/09 15:18:16;;;;;;;6.83;2.73;;;;;;;;;;6312614;28;20599;-86
2021/08/09 15:21:17;;;;;;;3.20;2.40;;;25.50;80.30;;;;;;6291711;28;20028;-86
2021/08/09 15:24:17;;;;;;;3.63;2.70;;;25.20;72.60;;;;;;6306641;28;20188;-87
2021/08/09 15:27:18;;;;;;;4.33;2.67;;;25.00;72.80;;;;;;6289136;28;20107;-85
2021/08/09 15:30:19;;;;;;;4.33;2.70;;;24.80;72.70;;;;;;6300317;28;20033;-90
2021/08/09 15:33:19;;;;;;;3.10;2.47;;;24.60;73.60;;;;;;6292108;28;20035;-90
2021/08/09 15:36:20;;;;;;;3.23;2.43;;;24.50;74.10;;;;;;6287808;28;20098;-89
2021/08/09 15:39:20;;;;;;;4.97;2.57;;;24.40;75.40;;;;;;6285320;28;20036;-90
2021/08/09 15:42:21;;;;;;;3.80;2.53;;;24.20;75.70;;;;;;6298613;28;20406;-85
2021/08/09 15:45:22;;;;;;;5.50;2.80;;;24.20;73.90;;;;;;6310708;28;20484;-87
2021/08/09 15:48:22;;;;;;;4.70;3.07;;;24.10;76.20;;;;;;6295184;28;20044;-86
2021/08/09 15:51:23;;;;;;;8.03;3.40;;;24.00;75.00;;;;;;6271443;28;20085;-87
2021/08/09 15:54:26;;;;;;;8.60;2.97;;;24.20;76.30;;;;;;6278645;28;20036;-89
2021/08/09 15:57:27;;;;;;;2.85;2.35;;;24.20;77.00;;;;;;6300881;28;20026;-86
2021/08/09 16:00:27;;;;;;;4.37;2.80;;;24.00;77.20;;;;;;6292539;28;20028;-90
2021/08/09 16:03:28;;;;;;;5.43;2.80;;;;;;;;;;6307970;28;20032;-89
2021/08/09 16:06:29;;;;;;;4.53;2.77;;;23.80;76.80;;;;;;6302351;28;20107;-87
2021/08/09 16:09:30;;;;;;;5.03;2.73;;;23.60;81.40;;;;;;6311549;28;20032;-87
2021/08/09 16:12:30;;;;;;;3.83;2.72;;;23.90;91.90;;;;;;6290823;28;20032;-89